createdAt,value
2019-02-20T00:01:40.381Z,29.70
2019-02-20T00:04:09.822Z,25.57
2019-02-20T00:06:39.281Z,27.27
2019-02-20T00:09:09.174Z,34.30
2019-02-20T00:11:38.751Z,29.07
2019-02-20T00:14:08.241Z,27.27
2019-02-20T00:16:37.707Z,30.88
2019-02-20T00:19:07.175Z,28.60
2019-02-20T00:21:36.636Z,27.58
2019-02-20T00:24:06.060Z,31.95
2019-02-20T00:26:35.531Z,27.87
2019-02-20T00:29:04.958Z,33.67
2019-02-20T00:31:34.750Z,34.98
2019-02-20T00:34:04.179Z,34.67
2019-02-20T00:36:33.638Z,34.58
2019-02-20T00:39:04.618Z,28.47
2019-02-20T00:41:34.055Z,28.23
2019-02-20T00:44:15.204Z,29.27
2019-02-20T00:46:52.697Z,32.45
2019-02-20T00:49:27.331Z,33.53
2019-02-20T00:52:34.405Z,29.80
2019-02-20T00:55:03.816Z,35.95
2019-02-20T00:57:33.281Z,31.73
2019-02-20T01:00:02.729Z,32.90
2019-02-20T01:02:32.166Z,27.00
2019-02-20T01:05:01.586Z,42.58
2019-02-20T01:07:31.021Z,30.75
2019-02-20T01:10:00.512Z,28.30
2019-02-20T01:12:29.986Z,32.48
2019-02-20T01:14:59.450Z,34.15
2019-02-20T01:17:28.876Z,37.42
2019-02-20T01:19:58.295Z,30.25
2019-02-20T01:22:27.720Z,31.52
2019-02-20T01:24:57.161Z,30.20
2019-02-20T01:27:26.594Z,33.48
2019-02-20T01:29:56.031Z,28.47
2019-02-20T01:32:25.447Z,33.35
2019-02-20T01:34:54.878Z,33.88
2019-02-20T01:37:24.682Z,33.88
2019-02-20T01:39:54.108Z,31.82
2019-02-20T01:42:23.546Z,31.48
2019-02-20T01:44:52.989Z,29.85
2019-02-20T01:47:22.830Z,30.57
2019-02-20T01:49:52.273Z,35.30
2019-02-20T01:52:21.710Z,28.45
2019-02-20T01:54:51.181Z,31.87
2019-02-20T01:57:20.603Z,27.00
2019-02-20T01:59:50.028Z,26.52
2019-02-20T02:02:19.476Z,30.50
2019-02-20T02:04:48.933Z,29.82
2019-02-20T02:07:18.355Z,33.15
2019-02-20T02:09:47.798Z,26.73
2019-02-20T02:12:17.228Z,33.33
2019-02-20T02:14:46.718Z,30.08
2019-02-20T02:17:16.141Z,33.20
2019-02-20T02:19:45.575Z,31.70
2019-02-20T02:22:15.045Z,33.75
2019-02-20T02:24:44.778Z,33.02
2019-02-20T02:27:14.228Z,30.92
2019-02-20T02:29:43.664Z,31.25
2019-02-20T02:32:13.118Z,36.20
2019-02-20T02:34:42.559Z,30.88
2019-02-20T02:37:12.049Z,38.50
2019-02-20T02:39:41.479Z,32.17
2019-02-20T02:42:11.300Z,36.73
2019-02-20T02:44:40.727Z,33.80
2019-02-20T02:47:10.162Z,40.40
2019-02-20T02:49:39.924Z,34.73
2019-02-20T02:52:09.339Z,37.48
2019-02-20T02:54:38.843Z,34.35
2019-02-20T02:57:14.088Z,38.25
2019-02-20T02:59:43.529Z,30.10
2019-02-20T03:02:12.952Z,36.80
2019-02-20T03:04:42.409Z,37.73
2019-02-20T03:07:11.862Z,32.83
2019-02-20T03:09:41.292Z,33.20
2019-02-20T03:12:10.717Z,32.90
2019-02-20T03:14:40.185Z,39.90
2019-02-20T03:17:09.634Z,33.55
2019-02-20T03:19:39.062Z,44.33
2019-02-20T03:22:08.484Z,33.10
2019-02-20T03:24:37.913Z,29.07
2019-02-20T03:27:07.408Z,37.15
2019-02-20T03:29:36.867Z,41.55
2019-02-20T03:32:06.351Z,31.37
2019-02-20T03:34:36.095Z,39.70
2019-02-20T03:37:05.577Z,42.80
2019-02-20T03:39:37.345Z,32.38
2019-02-20T03:42:06.772Z,37.75
2019-02-20T03:44:36.199Z,36.33
2019-02-20T05:12:08.816Z,33.80
2019-02-20T05:14:38.425Z,30.48
2019-02-20T05:17:07.882Z,31.48
2019-02-20T05:19:37.330Z,32.25
2019-02-20T05:22:06.802Z,24.55
2019-02-20T05:24:36.274Z,31.10
2019-02-20T05:27:05.727Z,28.77
2019-02-20T05:29:35.176Z,26.82
2019-02-20T05:32:04.638Z,28.57
2019-02-20T05:34:34.127Z,24.90
2019-02-20T05:37:03.559Z,30.37
2019-02-20T05:39:33.318Z,29.07
2019-02-20T05:42:02.755Z,31.37
2019-02-20T05:44:32.204Z,25.97
2019-02-20T05:47:01.673Z,24.55
2019-02-20T05:49:31.464Z,23.73
2019-02-20T05:52:00.925Z,25.12
2019-02-20T05:54:34.734Z,27.35
2019-02-20T05:57:01.476Z,32.78
2019-02-20T05:59:30.910Z,37.13
2019-02-20T06:02:00.363Z,20.00
2019-02-20T06:04:29.831Z,27.77
2019-02-20T06:06:59.269Z,26.52
2019-02-20T06:09:28.712Z,24.43
2019-02-20T06:11:58.167Z,33.83
2019-02-20T06:14:27.618Z,32.33
2019-02-20T06:16:57.067Z,29.50
2019-02-20T06:19:26.892Z,25.95
2019-02-20T06:21:56.323Z,25.08
2019-02-20T06:24:25.769Z,33.05
2019-02-20T06:26:55.226Z,30.82
2019-02-20T06:29:24.715Z,29.52
2019-02-20T06:31:54.159Z,30.97
2019-02-20T06:34:23.644Z,26.60
2019-02-20T06:36:53.066Z,32.05
2019-02-20T06:39:22.577Z,29.82
2019-02-20T06:41:52.019Z,28.07
2019-02-20T06:44:21.458Z,27.45
2019-02-20T06:46:50.906Z,27.25
2019-02-20T06:49:20.417Z,30.62
2019-02-20T06:51:49.867Z,27.05
2019-02-20T06:54:19.714Z,33.23
2019-02-20T06:56:50.249Z,33.73
2019-02-20T06:59:19.699Z,32.67
2019-02-20T07:01:49.178Z,31.55
2019-02-20T07:04:18.616Z,25.48
2019-02-20T07:07:09.674Z,30.45
2019-02-20T07:10:26.436Z,30.72
2019-02-20T07:13:26.543Z,34.95
2019-02-20T07:16:49.028Z,38.70
2019-02-20T07:19:59.425Z,32.38
2019-02-20T07:23:13.683Z,25.97
2019-02-20T07:26:24.070Z,28.42
2019-02-20T07:29:16.902Z,30.48
2019-02-20T07:31:46.339Z,28.20
2019-02-20T07:34:15.970Z,26.57
2019-02-20T07:36:45.848Z,27.42
2019-02-20T07:39:15.302Z,28.30
2019-02-20T07:41:44.737Z,23.50
2019-02-20T07:44:14.210Z,24.65
2019-02-20T07:46:43.994Z,25.75
2019-02-20T07:49:13.428Z,25.02
2019-02-20T07:51:42.868Z,30.80
2019-02-20T07:54:12.399Z,28.90
2019-02-20T07:56:42.558Z,32.70
2019-02-20T07:59:12.003Z,31.95
2019-02-20T08:01:41.753Z,28.52
2019-02-20T08:04:11.246Z,25.12
2019-02-20T08:06:40.691Z,26.68
2019-02-20T08:09:10.143Z,28.67
2019-02-20T08:11:39.895Z,34.10
2019-02-20T08:14:09.336Z,28.60
2019-02-20T08:16:52.359Z,29.20
2019-02-20T08:19:21.820Z,29.40
2019-02-20T08:21:51.430Z,38.75
2019-02-20T08:24:20.871Z,33.02
2019-02-20T08:26:50.326Z,31.97
2019-02-20T08:29:19.834Z,27.82
2019-02-20T08:31:49.325Z,28.42
2019-02-20T08:34:18.824Z,31.65
2019-02-20T08:36:48.286Z,33.53
2019-02-20T08:39:17.800Z,31.50
2019-02-20T08:41:47.272Z,28.70
2019-02-20T08:44:17.045Z,27.37
2019-02-20T08:46:46.486Z,27.42
2019-02-20T08:49:15.983Z,26.68
2019-02-20T08:51:45.440Z,26.23
2019-02-20T08:54:14.949Z,33.15
2019-02-20T08:56:44.444Z,28.17
2019-02-20T08:59:27.505Z,25.30
2019-02-20T09:01:57.161Z,31.33
2019-02-20T09:04:26.681Z,31.70
2019-02-20T09:06:56.131Z,32.00
2019-02-20T09:09:25.669Z,28.02
2019-02-20T09:11:55.120Z,27.48
2019-02-20T09:14:24.939Z,40.50
2019-02-20T09:16:54.463Z,24.45
2019-02-20T09:19:23.969Z,26.82
2019-02-20T09:21:53.967Z,30.62
2019-02-20T09:25:04.454Z,36.75
2019-02-20T09:27:34.285Z,29.65
2019-02-20T09:30:04.203Z,32.20
2019-02-20T09:32:33.706Z,28.87
2019-02-20T09:35:03.152Z,37.42
2019-02-20T09:37:32.638Z,33.78
2019-02-20T09:40:02.179Z,39.50
2019-02-20T09:42:31.630Z,36.03
2019-02-20T09:45:01.114Z,27.40
2019-02-20T09:47:31.218Z,27.42
2019-02-20T09:50:00.748Z,26.45
2019-02-20T09:52:30.193Z,32.53
2019-02-20T09:54:59.665Z,42.33
2019-02-20T09:57:29.166Z,25.62
2019-02-20T09:59:58.692Z,25.95
2019-02-20T10:02:28.205Z,77.67
2019-02-20T10:04:57.684Z,30.32
2019-02-20T10:07:27.188Z,31.50
2019-02-20T10:09:56.731Z,30.17
2019-02-20T10:12:26.189Z,33.15
2019-02-20T10:14:55.679Z,40.75
2019-02-20T10:17:25.228Z,36.23
2019-02-20T10:20:08.990Z,41.53
2019-02-20T10:22:38.478Z,31.93
2019-02-20T10:25:08.170Z,25.37
2019-02-20T10:27:37.654Z,34.23
2019-02-20T10:30:10.145Z,37.45
2019-02-20T10:32:39.631Z,28.38
2019-02-20T10:35:09.345Z,37.73
2019-02-20T10:37:38.847Z,35.13
2019-02-20T10:40:08.543Z,31.93
2019-02-20T10:42:38.049Z,33.78
2019-02-20T10:45:07.920Z,35.40
2019-02-20T10:47:37.450Z,33.67
2019-02-20T10:50:07.272Z,32.40
2019-02-20T10:52:36.828Z,32.65
2019-02-20T10:55:06.757Z,39.83
2019-02-20T10:57:36.282Z,29.20
2019-02-20T11:00:08.748Z,24.23
2019-02-20T11:02:38.253Z,30.65
2019-02-20T11:05:07.744Z,34.50
2019-02-20T11:07:37.195Z,25.70
2019-02-20T11:10:06.886Z,31.97
2019-02-20T11:12:36.373Z,22.70
2019-02-20T11:15:06.428Z,26.52
2019-02-20T11:17:37.184Z,23.85
2019-02-20T11:20:07.319Z,29.02
2019-02-20T11:22:37.056Z,34.63
2019-02-20T11:25:07.532Z,25.15
2019-02-20T11:27:37.040Z,27.13
2019-02-20T11:30:08.544Z,34.38
2019-02-20T11:32:37.992Z,29.85
2019-02-20T11:35:08.273Z,32.70
2019-02-20T11:37:37.760Z,32.17
2019-02-20T11:40:07.974Z,21.90
2019-02-20T11:42:37.410Z,26.68
2019-02-20T11:45:07.821Z,27.50
2019-02-20T11:47:37.633Z,25.95
2019-02-20T11:50:07.881Z,32.95
2019-02-20T11:52:38.535Z,27.02
2019-02-20T11:55:08.358Z,28.02
2019-02-20T11:57:37.787Z,28.77
2019-02-20T12:00:09.188Z,32.20
2019-02-20T12:02:38.629Z,30.10
2019-02-20T12:05:08.181Z,23.92
2019-02-20T12:07:37.682Z,28.52
2019-02-20T12:10:08.226Z,22.90
2019-02-20T12:12:37.659Z,32.53
2019-02-20T12:15:07.726Z,29.70
2019-02-20T12:17:37.434Z,28.38
2019-02-20T12:20:07.050Z,31.35
2019-02-20T12:22:36.554Z,22.87
2019-02-20T12:25:06.186Z,21.57
2019-02-20T12:27:35.653Z,29.20
2019-02-20T12:30:06.243Z,23.62
2019-02-20T12:32:35.701Z,31.23
2019-02-20T12:35:05.621Z,19.17
2019-02-20T12:37:35.138Z,19.92
2019-02-20T12:40:05.151Z,21.15
2019-02-20T12:42:34.663Z,19.48
2019-02-20T12:45:04.216Z,23.98
2019-02-20T12:47:33.739Z,22.07
2019-02-20T12:50:03.222Z,30.40
2019-02-20T12:52:32.702Z,25.80
2019-02-20T12:55:02.153Z,27.67
2019-02-20T12:57:31.892Z,25.40
2019-02-20T13:00:01.490Z,18.60
2019-02-20T13:02:30.945Z,24.07
2019-02-20T13:05:00.581Z,18.35
2019-02-20T13:07:30.412Z,27.73
2019-02-20T13:10:02.766Z,23.50
2019-02-20T13:12:32.539Z,22.58
2019-02-20T13:15:02.027Z,21.90
2019-02-20T13:17:31.802Z,25.08
2019-02-20T13:20:01.237Z,17.52
2019-02-20T13:22:30.689Z,20.20
2019-02-20T13:25:00.554Z,20.40
2019-02-20T13:27:30.406Z,27.22
2019-02-20T13:30:00.822Z,20.68
2019-02-20T13:32:30.601Z,19.50
2019-02-20T13:35:00.514Z,22.10
2019-02-20T13:37:29.998Z,18.48
2019-02-20T13:39:59.822Z,18.48
2019-02-20T13:42:29.384Z,19.50
2019-02-20T13:44:59.378Z,20.43
2019-02-20T13:47:28.862Z,29.05
2019-02-20T13:49:58.289Z,21.93
2019-02-20T13:52:27.846Z,17.98
2019-02-20T13:54:57.726Z,14.75
2019-02-20T13:57:27.186Z,23.45
2019-02-20T13:59:56.975Z,19.65
2019-02-20T14:02:26.402Z,23.30
2019-02-20T14:04:55.846Z,15.72
2019-02-20T14:07:25.304Z,20.72
2019-02-20T14:09:54.751Z,18.77
2019-02-20T14:12:24.200Z,17.10
2019-02-20T14:14:53.628Z,20.92
2019-02-20T14:17:26.591Z,23.42
2019-02-20T14:19:55.178Z,18.35
2019-02-20T14:22:26.164Z,23.55
2019-02-20T14:24:56.099Z,12.07
2019-02-20T14:27:26.388Z,20.57
2019-02-20T14:29:56.034Z,20.82
2019-02-20T14:32:26.225Z,24.57
2019-02-20T14:34:56.293Z,19.17
2019-02-20T14:37:26.722Z,20.12
2019-02-20T14:39:57.384Z,14.60
2019-02-20T14:42:26.967Z,20.62
2019-02-20T14:44:57.933Z,28.35
2019-02-20T14:47:31.437Z,22.30
2019-02-20T14:50:01.331Z,23.20
2019-02-20T14:52:31.776Z,16.80
2019-02-20T14:55:01.403Z,17.20
2019-02-20T14:57:31.670Z,13.75
2019-02-20T15:00:04.438Z,21.27
2019-02-20T15:02:33.967Z,21.95
2019-02-20T15:05:05.201Z,19.02
2019-02-20T15:07:36.897Z,16.10
2019-02-20T15:10:13.936Z,19.25
2019-02-20T15:13:03.251Z,17.87
2019-02-20T15:15:33.320Z,23.42
2019-02-20T15:18:04.183Z,17.48
2019-02-20T15:20:35.589Z,15.32
2019-02-20T15:23:07.185Z,11.68
2019-02-20T15:25:36.999Z,15.38
2019-02-20T15:28:06.748Z,18.20
2019-02-20T15:30:37.173Z,17.75
2019-02-20T15:33:06.861Z,19.67
2019-02-20T15:35:38.270Z,18.60
2019-02-20T15:38:08.261Z,14.78
2019-02-20T15:40:46.758Z,11.18
2019-02-20T15:43:23.482Z,15.00
2019-02-20T15:45:54.483Z,21.42
2019-02-20T15:48:24.647Z,12.68
2019-02-20T15:50:54.320Z,13.32
2019-02-20T15:53:25.197Z,18.45
2019-02-20T15:55:55.214Z,19.62
2019-02-20T15:58:24.708Z,13.95
2019-02-20T16:00:54.507Z,15.58
2019-02-20T16:03:23.967Z,27.10
2019-02-20T16:05:53.489Z,15.38
2019-02-20T16:08:22.987Z,15.98
2019-02-20T16:10:52.861Z,22.27
2019-02-20T16:13:22.589Z,17.05
2019-02-20T16:15:52.647Z,15.83
2019-02-20T16:18:22.275Z,13.98
2019-02-20T16:20:52.222Z,15.88
2019-02-20T16:23:22.612Z,27.65
2019-02-20T16:25:53.556Z,19.75
2019-02-20T16:28:27.870Z,24.32
2019-02-20T16:30:57.486Z,22.87
2019-02-20T16:33:28.255Z,21.60
2019-02-20T16:35:57.795Z,18.25
2019-02-20T16:38:27.809Z,16.37
2019-02-20T16:40:58.948Z,21.93
2019-02-20T16:43:28.932Z,18.23
2019-02-20T16:45:58.774Z,13.93
2019-02-20T16:48:28.251Z,16.23
2019-02-20T16:50:58.044Z,20.17
2019-02-20T16:53:27.614Z,16.57
2019-02-20T16:55:57.687Z,17.27
2019-02-20T16:58:27.116Z,26.52
2019-02-20T17:00:56.668Z,28.55
2019-02-20T17:03:26.677Z,36.30
2019-02-20T17:05:56.722Z,35.33
2019-02-20T17:08:26.345Z,45.75
2019-02-20T17:10:56.172Z,50.80
2019-02-20T17:13:25.644Z,47.50
2019-02-20T17:15:55.866Z,51.83
2019-02-20T17:18:25.387Z,39.20
2019-02-20T17:20:55.085Z,37.83
2019-02-20T17:27:05.904Z,35.10
2019-02-20T17:29:35.342Z,39.90
2019-02-20T17:32:04.794Z,32.23
2019-02-20T17:34:34.245Z,30.77
2019-02-20T17:37:03.753Z,46.95
2019-02-20T17:39:33.189Z,36.00
2019-02-20T17:42:03.324Z,48.95
2019-02-20T17:44:32.883Z,44.23
2019-02-20T17:47:02.355Z,41.25
2019-02-20T17:49:33.373Z,39.45
2019-02-20T17:52:02.827Z,38.70
2019-02-20T17:54:32.658Z,36.25
2019-02-20T17:57:02.158Z,23.02
2019-02-20T17:59:32.012Z,37.30
2019-02-20T18:02:01.535Z,42.15
2019-02-20T18:04:31.035Z,40.43
2019-02-20T18:07:00.544Z,36.55
2019-02-20T18:09:30.028Z,43.87
2019-02-20T18:11:59.541Z,24.45
2019-02-20T18:14:29.196Z,20.55
2019-02-20T18:16:59.390Z,22.73
2019-02-20T18:19:29.717Z,22.05
2019-02-20T18:22:00.178Z,24.95
2019-02-20T18:24:29.683Z,23.67
2019-02-20T18:26:59.266Z,47.78
2019-02-20T18:29:28.956Z,90.57
2019-02-20T18:31:58.603Z,93.17
2019-02-20T18:34:28.382Z,94.15
2019-02-20T18:36:57.915Z,108.47
2019-02-20T18:39:27.776Z,82.22
2019-02-20T18:41:57.254Z,83.72
2019-02-20T18:44:26.787Z,67.87
2019-02-20T18:46:56.709Z,61.92
2019-02-20T18:49:26.260Z,72.35
2019-02-20T18:51:55.743Z,68.20
2019-02-20T18:54:26.041Z,61.13
2019-02-20T18:56:55.554Z,44.45
2019-02-20T18:59:25.288Z,36.73
2019-02-20T19:01:54.773Z,36.05
2019-02-20T19:04:24.313Z,38.92
2019-02-20T19:06:54.265Z,32.70
2019-02-20T19:09:29.160Z,34.58
2019-02-20T19:12:55.361Z,29.55
2019-02-20T19:15:54.896Z,23.22
2019-02-20T19:19:07.030Z,36.38
2019-02-20T19:22:19.669Z,20.17
2019-02-20T19:25:17.537Z,28.77
2019-02-20T19:27:58.433Z,23.15
2019-02-20T19:31:14.903Z,28.30
2019-02-20T19:34:28.483Z,30.35
2019-02-20T19:37:44.053Z,36.33
2019-02-20T19:41:03.419Z,31.17
2019-02-20T19:44:01.793Z,33.35
2019-02-20T19:47:04.089Z,39.67
2019-02-20T19:49:54.601Z,29.27
2019-02-20T19:52:33.521Z,36.85
2019-02-20T19:55:17.756Z,35.60
2019-02-20T19:58:32.980Z,30.08
2019-02-20T20:01:37.383Z,38.92
2019-02-20T20:04:22.593Z,46.53
2019-02-20T20:07:21.388Z,37.85
2019-02-20T20:10:15.824Z,30.35
2019-02-20T20:13:26.998Z,29.98
2019-02-20T20:16:41.602Z,40.48
2019-02-20T20:19:56.303Z,35.52
2019-02-20T20:22:54.231Z,47.67
2019-02-20T20:25:52.286Z,41.10
2019-02-20T20:29:05.964Z,31.90
2019-02-20T20:31:58.280Z,47.20
2019-02-20T20:35:00.495Z,51.88
2019-02-20T20:37:47.772Z,44.98
2019-02-20T20:40:36.574Z,47.30
2019-02-20T20:43:37.455Z,30.97
2019-02-20T20:46:38.810Z,36.13
2019-02-20T20:49:52.093Z,33.18
2019-02-20T20:53:05.892Z,29.05
2019-02-20T20:55:52.485Z,31.75
2019-02-20T20:59:17.197Z,30.57
2019-02-20T21:02:09.395Z,29.60
2019-02-20T21:05:20.054Z,34.08
2019-02-20T21:07:59.888Z,39.70
2019-02-20T21:11:05.297Z,41.25
2019-02-20T21:14:24.198Z,31.05
2019-02-20T21:17:46.684Z,30.95
2019-02-20T21:21:00.078Z,29.70
2019-02-20T21:24:25.559Z,34.50
2019-02-20T21:27:44.611Z,31.97
2019-02-20T21:31:00.902Z,28.47
2019-02-20T21:34:26.070Z,26.55
2019-02-20T21:37:33.995Z,29.87
2019-02-20T21:40:10.413Z,29.25
2019-02-20T21:42:54.888Z,25.97
2019-02-20T21:45:54.121Z,26.55
2019-02-20T21:49:23.250Z,27.15
2019-02-20T21:52:33.743Z,24.70
2019-02-20T21:55:20.558Z,23.90
2019-02-20T21:58:33.027Z,22.13
2019-02-20T22:01:45.193Z,24.70
2019-02-20T22:04:44.068Z,25.97
2019-02-20T22:07:53.036Z,24.27
2019-02-20T22:10:59.480Z,23.27
2019-02-20T22:13:58.992Z,26.37
2019-02-20T22:17:00.621Z,24.07
2019-02-20T22:19:44.471Z,22.60
2019-02-20T22:23:09.949Z,21.75
2019-02-20T22:25:55.558Z,21.40
2019-02-20T22:29:11.735Z,23.75
2019-02-20T22:32:21.528Z,27.20
2019-02-20T22:35:25.534Z,32.38
2019-02-20T22:38:42.913Z,23.92
2019-02-20T22:41:39.071Z,27.95
2019-02-20T22:44:42.712Z,26.57
2019-02-20T22:48:03.020Z,25.23
2019-02-20T22:51:06.400Z,32.17
2019-02-20T22:54:16.468Z,34.13
2019-02-20T22:57:27.380Z,33.85
2019-02-20T23:00:44.654Z,30.40
2019-02-20T23:03:26.928Z,28.85
2019-02-20T23:06:49.590Z,26.60
2019-02-20T23:09:41.298Z,29.30
2019-02-20T23:12:41.941Z,25.43
2019-02-20T23:15:11.379Z,28.52
2019-02-20T23:17:40.865Z,33.23
2019-02-20T23:20:10.354Z,28.15
2019-02-20T23:22:39.794Z,35.15
2019-02-20T23:25:09.285Z,38.05
2019-02-20T23:27:38.795Z,32.42
2019-02-20T23:30:13.019Z,36.50
2019-02-20T23:32:43.127Z,31.82
2019-02-20T23:35:11.857Z,29.32
2019-02-20T23:37:41.324Z,30.68
2019-02-20T23:40:10.859Z,32.23
2019-02-20T23:42:40.382Z,34.73
2019-02-20T23:45:10.621Z,36.08
2019-02-20T23:47:40.087Z,33.45
2019-02-20T23:50:09.683Z,29.98
2019-02-20T23:52:39.183Z,34.63
2019-02-20T23:55:08.720Z,36.35
2019-02-20T23:57:38.455Z,32.88
